Time;durP1;ratioP1;P1;durP2;ratioP2;P2;SDS_P1;SDS_P2;PMS_P1;PMS_P2;Temp;Humidity;BMP_temperature;BMP_pressure;BME280_temperature;BME280_humidity;BME280_pressure;Samples;Min_cycle;Max_cycle;Signal;HPM_P1;HPM_P2
2023/08/31 00:02:11;;;;;;;2.67;1.20;;;;;;;;;;5028915;28;20523;-64
2023/08/31 00:04:37;;;;;;;2.67;1.15;;;;;;;;;;5026368;28;20578;-65
2023/08/31 00:07:02;;;;;;;2.78;1.30;;;;;;;;;;5029806;28;20033;-66
2023/08/31 00:09:29;;;;;;;1.83;1.00;;;;;;;;;;5029754;28;20024;-67
2023/08/31 00:11:54;;;;;;;1.73;0.88;;;;;;;;;;5030443;28;20018;-66
2023/08/31 00:14:22;;;;;;;2.45;1.02;;;;;;;;;;5029011;28;20234;-66
2023/08/31 00:16:47;;;;;;;2.20;1.05;;;;;;;;;;5028937;28;20088;-66
2023/08/31 00:19:14;;;;;;;2.40;1.08;;;;;;;;;;5028514;28;20443;-66
2023/08/31 00:21:39;;;;;;;1.90;0.90;;;;;;;;;;5028639;28;20649;-65
2023/08/31 00:24:05;;;;;;;5.70;1.13;;;;;;;;;;5028620;28;20024;-67
2023/08/31 00:26:30;;;;;;;2.38;1.10;;;;;;;;;;5028510;28;20074;-66
2023/08/31 00:28:56;;;;;;;2.22;0.82;;;;;;;;;;5028523;28;20459;-68
2023/08/31 00:31:21;;;;;;;2.25;1.00;;;;;;;;;;5028043;28;20017;-62
2023/08/31 00:33:48;;;;;;;4.63;1.20;;;;;;;;;;5023377;28;20050;-68
2023/08/31 00:36:13;;;;;;;4.03;1.30;;;;;;;;;;5022147;28;20540;-65
2023/08/31 00:38:38;;;;;;;1.95;0.93;;;;;;;;;;5027188;28;20017;-68
2023/08/31 00:41:04;;;;;;;3.13;1.17;;;;;;;;;;5024707;28;20523;-68
2023/08/31 00:43:40;;;;;;;;;;;;;;;;;;;;;
2023/08/31 00:46:01;;;;;;;3.55;1.20;;;;;;;;;;4987554;28;20077;-68
2023/08/31 00:48:26;;;;;;;1.88;1.10;;;;;;;;;;4989417;28;20049;-68
2023/08/31 00:50:52;;;;;;;3.20;1.55;;;;;;;;;;4989935;28;20026;-67
2023/08/31 00:53:17;;;;;;;1.92;1.05;;;;;;;;;;4991472;28;20018;-68
2023/08/31 00:55:46;;;;;;;1.98;1.08;;;;;;;;;;4991024;28;20053;-68
2023/08/31 00:58:11;;;;;;;3.30;1.33;;;;;;;;;;4991416;28;20030;-66
2023/08/31 01:00:36;;;;;;;2.22;1.15;;;;;;;;;;4990795;28;20511;-66
2023/08/31 01:03:07;;;;;;;2.35;1.33;;;;;;;;;;4990605;28;20040;-69
2023/08/31 01:05:37;;;;;;;2.00;1.00;;;;;;;;;;4986088;28;20018;-68
2023/08/31 01:08:02;;;;;;;2.97;1.10;;;;;;;;;;4990413;28;20045;-67
2023/08/31 01:10:43;;;;;;;1.63;0.90;;;;;;;;;;4990162;28;20049;-69
2023/08/31 01:13:13;;;;;;;3.72;1.58;;;;;;;;;;4991060;28;21648;-67
2023/08/31 01:15:46;;;;;;;3.63;1.15;;;;;;;;;;4990562;28;20088;-65
2023/08/31 01:18:13;;;;;;;2.80;1.20;;;;;;;;;;4989808;28;20018;-68
2023/08/31 01:20:42;;;;;;;3.38;1.30;;;;;;;;;;4990726;28;20026;-68
2023/08/31 01:23:15;;;;;;;3.75;1.40;;;;;;;;;;4978927;28;20045;-67
2023/08/31 01:25:42;;;;;;;3.67;1.45;;;;;;;;;;4990278;28;20019;-66
2023/08/31 01:28:08;;;;;;;1.85;0.88;;;;;;;;;;4991320;28;20101;-67
2023/08/31 01:30:34;;;;;;;2.13;1.25;;;;;;;;;;4990694;28;20090;-69
2023/08/31 01:32:59;;;;;;;2.90;1.23;;;;;;;;;;4990148;28;20042;-68
2023/08/31 01:35:25;;;;;;;1.80;1.10;;;;;;;;;;4987681;28;20415;-69
2023/08/31 01:37:53;;;;;;;1.48;0.93;;;;;;;;;;4982121;28;20228;-67
2023/08/31 01:40:18;;;;;;;1.88;1.10;;;;;;;;;;4986379;28;20094;-67
2023/08/31 01:42:44;;;;;;;1.63;0.87;;;;;;;;;;4990637;28;20469;-67
2023/08/31 01:45:15;;;;;;;2.50;1.00;;;;;;;;;;4989337;28;20272;-68
2023/08/31 01:47:40;;;;;;;2.97;1.00;;;;;;;;;;4990256;28;20042;-68
2023/08/31 01:50:06;;;;;;;2.47;1.30;;;;;;;;;;4988553;28;20479;-69
2023/08/31 01:52:31;;;;;;;2.65;1.10;;;;;;;;;;4989197;28;20022;-69
2023/08/31 01:54:56;;;;;;;2.92;1.17;;;;;;;;;;4989680;28;20019;-68
2023/08/31 01:57:21;;;;;;;6.38;1.10;;;;;;;;;;4990759;28;20368;-68
2023/08/31 01:59:47;;;;;;;3.28;0.90;;;;;;;;;;4989256;28;20025;-67
2023/08/31 02:02:12;;;;;;;2.53;1.10;;;;;;;;;;4989985;28;20022;-67
2023/08/31 02:04:37;;;;;;;2.05;1.10;;;;;;;;;;4988600;28;20022;-69
2023/08/31 02:07:02;;;;;;;3.53;1.10;;;;;;;;;;4989853;28;20038;-68
2023/08/31 02:09:28;;;;;;;1.75;1.00;;;;;;;;;;4990090;28;20046;-69
2023/08/31 02:11:53;;;;;;;3.58;1.08;;;;;;;;;;4990663;28;20131;-68
2023/08/31 02:14:18;;;;;;;2.38;1.10;;;;;;;;;;4989392;28;20029;-69
2023/08/31 02:16:44;;;;;;;3.13;1.00;;;;;;;;;;4990395;28;20113;-69
2023/08/31 02:19:09;;;;;;;2.60;1.10;;;;;;;;;;4988504;28;20377;-69
2023/08/31 02:21:34;;;;;;;1.88;1.20;;;;;;;;;;4988497;28;20011;-69
2023/08/31 02:24:00;;;;;;;1.40;0.90;;;;;;;;;;4989098;28;20100;-67
2023/08/31 02:26:25;;;;;;;3.03;0.98;;;;;;;;;;4990066;28;20384;-67
2023/08/31 02:28:50;;;;;;;2.40;1.10;;;;;;;;;;4989966;28;20011;-67
2023/08/31 02:31:17;;;;;;;2.35;1.17;;;;;;;;;;4990110;28;20022;-68
2023/08/31 02:33:42;;;;;;;2.58;1.10;;;;;;;;;;4982414;28;20007;-69
2023/08/31 02:36:07;;;;;;;1.27;1.00;;;;;;;;;;4989180;28;20037;-68
2023/08/31 02:38:32;;;;;;;2.22;1.25;;;;;;;;;;4989499;28;20310;-69
2023/08/31 02:40:57;;;;;;;4.45;1.13;;;;;;;;;;4990083;28;20557;-67
2023/08/31 02:43:23;;;;;;;2.67;1.20;;;;;;;;;;4989275;28;20127;-68
2023/08/31 02:45:49;;;;;;;2.28;1.50;;;;;;;;;;4989240;28;20103;-66
2023/08/31 02:48:14;;;;;;;2.53;1.40;;;;;;;;;;4987036;28;20379;-67
2023/08/31 02:50:39;;;;;;;3.05;1.60;;;;;;;;;;4989740;28;20406;-68
2023/08/31 02:53:05;;;;;;;3.63;1.60;;;;;;;;;;4988339;28;20022;-68
2023/08/31 02:55:32;;;;;;;4.82;1.70;;;;;;;;;;4989363;28;20024;-68
2023/08/31 02:57:57;;;;;;;3.90;1.70;;;;;;;;;;4989905;28;20057;-69
2023/08/31 03:00:22;;;;;;;3.33;1.40;;;;;;;;;;4989963;28;20058;-69
2023/08/31 03:02:48;;;;;;;4.07;1.92;;;;;;;;;;4989410;28;20072;-68
2023/08/31 03:05:13;;;;;;;3.70;1.77;;;;;;;;;;4986985;28;20025;-68
2023/08/31 03:07:39;;;;;;;3.15;1.63;;;;;;;;;;4989909;28;20014;-70
2023/08/31 03:10:04;;;;;;;5.22;2.03;;;;;;;;;;4990026;28;20015;-69
2023/08/31 03:12:30;;;;;;;3.35;1.58;;;;;;;;;;4993327;28;20019;-67
2023/08/31 03:14:55;;;;;;;5.03;1.92;;;;;;;;;;4992851;28;20467;-69
2023/08/31 03:17:20;;;;;;;3.88;1.75;;;;;;;;;;4990678;28;20020;-68
2023/08/31 03:19:45;;;;;;;5.93;2.10;;;;;;;;;;4992589;28;20027;-68
2023/08/31 03:22:10;;;;;;;7.18;2.10;;;;;;;;;;4991605;28;20026;-68
2023/08/31 03:24:36;;;;;;;6.20;2.45;;;;;;;;;;4992219;28;20018;-68
2023/08/31 03:27:01;;;;;;;6.93;2.00;;;;;;;;;;4991543;28;20037;-68
2023/08/31 03:29:28;;;;;;;4.57;1.80;;;;;;;;;;4992860;28;20042;-68
2023/08/31 03:31:53;;;;;;;5.95;2.20;;;;;;;;;;4992027;28;20507;-69
2023/08/31 03:34:19;;;;;;;4.75;2.05;;;;;;;;;;4988746;28;20054;-69
2023/08/31 03:36:44;;;;;;;10.57;2.67;;;;;;;;;;4984906;28;20093;-69
2023/08/31 03:39:09;;;;;;;9.10;2.22;;;;;;;;;;5003365;28;20496;-70
2023/08/31 03:41:35;;;;;;;8.38;2.65;;;;;;;;;;4993334;28;20015;-68
2023/08/31 03:44:00;;;;;;;6.75;2.17;;;;;;;;;;4991655;28;20018;-69
2023/08/31 03:46:26;;;;;;;6.38;2.83;;;;;;;;;;4993073;28;20022;-69
2023/08/31 03:48:51;;;;;;;4.97;2.65;;;;;;;;;;4991973;28;20045;-70
2023/08/31 03:51:17;;;;;;;8.07;3.13;;;;;;;;;;4992871;28;20097;-67
2023/08/31 03:53:43;;;;;;;8.73;2.85;;;;;;;;;;4991249;28;20412;-65
2023/08/31 03:56:09;;;;;;;6.93;2.92;;;;;;;;;;4992401;28;20010;-69
2023/08/31 03:58:34;;;;;;;6.20;2.50;;;;;;;;;;4992256;28;20013;-68
2023/08/31 04:00:59;;;;;;;5.93;2.83;;;;;;;;;;4992923;28;20025;-69
2023/08/31 04:03:24;;;;;;;8.90;3.63;;;;;;;;;;5006417;28;20136;-69
2023/08/31 04:05:53;;;;;;;6.40;3.15;;;;;;;;;;4991943;28;20097;-69
2023/08/31 04:08:18;;;;;;;9.85;3.50;;;;;;;;;;4991186;28;20038;-68
2023/08/31 04:10:44;;;;;;;8.15;3.47;;;;;;;;;;4992606;28;20074;-68
2023/08/31 04:13:09;;;;;;;8.27;4.10;;;;;;;;;;4991839;28;20486;-67
2023/08/31 04:15:34;;;;;;;7.82;4.22;;;;;;;;;;4992009;28;20022;-68
2023/08/31 04:17:59;;;;;;;11.82;4.60;;;;;;;;;;4991748;28;20500;-69
2023/08/31 04:20:25;;;;;;;9.23;4.22;;;;;;;;;;4990056;28;20053;-68
2023/08/31 04:22:50;;;;;;;8.68;3.78;;;;;;;;;;4991279;28;20034;-68
2023/08/31 04:25:16;;;;;;;14.38;5.50;;;;;;;;;;4991567;28;20025;-66
2023/08/31 04:27:41;;;;;;;10.02;4.65;;;;;;;;;;4992178;28;20050;-67
2023/08/31 04:30:07;;;;;;;10.90;4.68;;;;;;;;;;4992215;28;20029;-67
2023/08/31 04:32:32;;;;;;;11.60;4.70;;;;;;;;;;4991292;28;20651;-69
2023/08/31 04:34:58;;;;;;;8.38;4.72;;;;;;;;;;4982287;28;20106;-67
2023/08/31 04:37:23;;;;;;;7.47;4.55;;;;;;;;;;4992251;28;20106;-69
2023/08/31 04:39:48;;;;;;;8.05;4.30;;;;;;;;;;4987936;28;20018;-69
2023/08/31 04:42:16;;;;;;;18.90;5.00;;;;;;;;;;4989447;28;20023;-67
2023/08/31 04:44:41;;;;;;;9.50;4.85;;;;;;;;;;4989398;28;20666;-68
2023/08/31 04:47:07;;;;;;;8.73;4.63;;;;;;;;;;4989068;28;20018;-67
2023/08/31 04:49:32;;;;;;;9.43;4.90;;;;;;;;;;4979868;28;20011;-68
2023/08/31 04:51:57;;;;;;;9.88;4.72;;;;;;;;;;4987498;28;20345;-66
2023/08/31 04:54:22;;;;;;;8.55;4.75;;;;;;;;;;4987984;28;20018;-67
2023/08/31 04:56:47;;;;;;;12.23;4.90;;;;;;;;;;4988286;28;20022;-66
2023/08/31 04:59:13;;;;;;;9.52;5.13;;;;;;;;;;4986679;28;20022;-67
2023/08/31 05:01:38;;;;;;;10.82;5.05;;;;;;;;;;4988494;28;20014;-65
2023/08/31 05:04:03;;;;;;;10.20;4.80;;;;;;;;;;4986592;28;20022;-66
2023/08/31 05:06:29;;;;;;;10.82;5.10;;;;;;;;;;4986407;28;20108;-66
2023/08/31 05:08:54;;;;;;;7.78;4.82;;;;;;;;;;4984928;28;20097;-66
2023/08/31 05:11:19;;;;;;;12.73;5.57;;;;;;;;;;4988976;28;20065;-66
2023/08/31 05:13:45;;;;;;;13.10;5.68;;;;;;;;;;4989926;28;20388;-67
2023/08/31 05:16:10;;;;;;;14.88;5.60;;;;;;;;;;4990619;28;20519;-66
2023/08/31 05:18:35;;;;;;;9.30;5.57;;;;;;;;;;4988111;28;20361;-67
2023/08/31 05:21:01;;;;;;;13.02;6.45;;;;;;;;;;4989499;28;20026;-66
2023/08/31 05:23:26;;;;;;;11.10;5.63;;;;;;;;;;4989806;28;20377;-65
2023/08/31 05:25:51;;;;;;;12.57;5.32;;;;;;;;;;4985163;28;20026;-66
2023/08/31 05:28:17;;;;;;;16.30;6.72;;;;;;;;;;4990248;28;20019;-66
2023/08/31 05:30:53;;;;;;;14.10;5.50;;;;;;;;;;4990104;28;20022;-63
2023/08/31 05:33:19;;;;;;;10.60;5.72;;;;;;;;;;4986894;28;20451;-68
2023/08/31 05:35:44;;;;;;;11.65;5.60;;;;;;;;;;4983956;28;20026;-66
2023/08/31 05:38:09;;;;;;;9.57;5.65;;;;;;;;;;4983291;28;20501;-65
2023/08/31 05:40:34;;;;;;;11.38;5.50;;;;;;;;;;4989725;28;20081;-67
2023/08/31 05:43:00;;;;;;;16.00;6.00;;;;;;;;;;4989675;28;20109;-65
2023/08/31 05:45:25;;;;;;;14.25;6.22;;;;;;;;;;4988425;28;20076;-66
2023/08/31 05:47:50;;;;;;;11.63;6.28;;;;;;;;;;4990079;28;20027;-65
2023/08/31 05:50:15;;;;;;;15.07;6.22;;;;;;;;;;4989490;28;20054;-66
2023/08/31 05:52:43;;;;;;;9.25;5.18;;;;;;;;;;4990973;28;20069;-65
2023/08/31 05:55:09;;;;;;;14.17;6.40;;;;;;;;;;4988912;28;20053;-67
2023/08/31 05:57:34;;;;;;;8.88;5.03;;;;;;;;;;4989057;28;20615;-65
2023/08/31 05:59:59;;;;;;;9.82;6.07;;;;;;;;;;4974970;28;20027;-67
2023/08/31 06:02:25;;;;;;;11.00;5.82;;;;;;;;;;4980207;28;20101;-66
2023/08/31 06:04:50;;;;;;;11.27;5.55;;;;;;;;;;4988315;28;20023;-63
2023/08/31 06:07:15;;;;;;;12.95;6.10;;;;;;;;;;4990341;28;20022;-66
2023/08/31 06:09:41;;;;;;;12.98;5.18;;;;;;;;;;4989908;28;20018;-67
2023/08/31 06:12:06;;;;;;;10.10;5.72;;;;;;;;;;4990356;28;20085;-66
2023/08/31 06:14:32;;;;;;;15.65;5.63;;;;;;;;;;4989517;28;20018;-66
2023/08/31 06:16:58;;;;;;;14.27;5.47;;;;;;;;;;4988318;28;20029;-67
2023/08/31 06:19:23;;;;;;;10.38;5.65;;;;;;;;;;4989306;28;20026;-66
2023/08/31 06:21:48;;;;;;;12.93;5.75;;;;;;;;;;4989793;28;20018;-66
2023/08/31 06:24:14;;;;;;;11.68;5.38;;;;;;;;;;4988844;28;20076;-66
2023/08/31 06:26:39;;;;;;;9.63;5.20;;;;;;;;;;4989912;28;20045;-66
2023/08/31 06:29:05;;;;;;;13.88;5.78;;;;;;;;;;4989788;28;20018;-66
2023/08/31 06:31:30;;;;;;;11.38;5.47;;;;;;;;;;4990270;28;20029;-67
2023/08/31 06:33:55;;;;;;;11.35;5.88;;;;;;;;;;4982607;28;20132;-65
2023/08/31 06:36:20;;;;;;;8.75;5.07;;;;;;;;;;4984042;28;20014;-66
2023/08/31 06:38:46;;;;;;;14.32;6.10;;;;;;;;;;4987869;28;20014;-66
2023/08/31 06:41:11;;;;;;;11.07;5.90;;;;;;;;;;4989040;28;20460;-65
2023/08/31 06:46:15;;;;;;;11.98;5.80;;;;;;;;;;5024237;28;20057;-66
2023/08/31 06:48:40;;;;;;;10.18;5.25;;;;;;;;;;5030866;28;20052;-66
2023/08/31 06:51:05;;;;;;;18.50;5.07;;;;;;;;;;5031067;28;20438;-66
2023/08/31 06:53:33;;;;;;;8.63;4.53;;;;;;;;;;5029734;28;20983;-65
2023/08/31 06:55:58;;;;;;;12.25;4.63;;;;;;;;;;5030543;28;20056;-63
2023/08/31 06:58:24;;;;;;;7.13;3.92;;;;;;;;;;5029532;28;20033;-70
2023/08/31 07:00:49;;;;;;;9.60;4.63;;;;;;;;;;5017954;28;20052;-64
2023/08/31 07:03:14;;;;;;;8.50;4.28;;;;;;;;;;5013227;28;20029;-68
2023/08/31 07:05:42;;;;;;;9.35;4.18;;;;;;;;;;5026708;28;20108;-67
2023/08/31 07:08:08;;;;;;;8.48;5.03;;;;;;;;;;5030965;28;20176;-63
2023/08/31 07:10:36;;;;;;;8.75;4.05;;;;;;;;;;5030454;28;20430;-67
2023/08/31 07:13:01;;;;;;;11.00;4.82;;;;;;;;;;5030825;28;20559;-67
2023/08/31 07:15:27;;;;;;;7.35;4.13;;;;;;;;;;5029580;28;20041;-68
2023/08/31 07:17:52;;;;;;;10.23;4.50;;;;;;;;;;5030526;28;20459;-66
2023/08/31 07:20:17;;;;;;;9.25;4.60;;;;;;;;;;5030227;28;20033;-67
2023/08/31 07:22:42;;;;;;;8.10;3.60;;;;;;;;;;5030674;28;20017;-67
2023/08/31 07:25:08;;;;;;;10.93;4.95;;;;;;;;;;5030029;28;20033;-65
2023/08/31 07:27:33;;;;;;;9.70;4.43;;;;;;;;;;5030871;28;20071;-70
2023/08/31 07:29:58;;;;;;;8.90;4.65;;;;;;;;;;5029759;28;20112;-64
2023/08/31 07:32:23;;;;;;;10.35;4.50;;;;;;;;;;5028134;28;20389;-67
2023/08/31 07:34:49;;;;;;;10.20;4.88;;;;;;;;;;5019950;28;20101;-66
2023/08/31 07:37:14;;;;;;;8.57;4.35;;;;;;;;;;5028074;28;20021;-67
2023/08/31 07:39:39;;;;;;;8.10;4.28;;;;;;;;;;5029718;28;20101;-67
2023/08/31 07:42:05;;;;;;;7.53;3.92;;;;;;;;;;5029052;28;20027;-66
2023/08/31 07:44:31;;;;;;;8.10;4.78;;;;;;;;;;5026970;28;20369;-67
2023/08/31 07:46:56;;;;;;;11.63;4.55;;;;;;;;;;5029993;28;20014;-67
2023/08/31 07:49:21;;;;;;;8.10;4.05;;;;;;;;;;5026151;28;20025;-69
2023/08/31 07:51:46;;;;;;;8.52;4.05;;;;;;;;;;5025384;28;20030;-67
2023/08/31 07:54:18;;;;;;;7.68;4.38;;;;;;;;;;5029042;28;20029;-67
2023/08/31 07:56:45;;;;;;;9.77;4.43;;;;;;;;;;5022260;28;20036;-68
2023/08/31 07:59:10;;;;;;;7.93;3.92;;;;;;;;;;5024989;28;20033;-65
2023/08/31 08:01:35;;;;;;;11.40;3.75;;;;;;;;;;5020958;28;20364;-65
2023/08/31 08:04:01;;;;;;;7.90;4.05;;;;;;;;;;5023460;28;20106;-69
2023/08/31 08:06:26;;;;;;;7.35;4.45;;;;;;;;;;5022100;28;20025;-65
2023/08/31 08:08:51;;;;;;;15.68;4.20;;;;;;;;;;5029943;28;20026;-68
2023/08/31 08:11:16;;;;;;;6.90;3.85;;;;;;;;;;5029237;28;20029;-63
2023/08/31 08:13:41;;;;;;;8.50;3.38;;;;;;;;;;5026462;28;20025;-68
2023/08/31 08:16:08;;;;;;;7.13;3.92;;;;;;;;;;5024987;28;20033;-66
2023/08/31 08:18:34;;;;;;;8.77;3.25;;;;;;;;;;5020140;28;20113;-67
2023/08/31 08:20:59;;;;;;;10.27;3.65;;;;;;;;;;5019285;28;20076;-64
2023/08/31 08:23:24;;;;;;;5.65;2.88;;;;;;;;;;5027347;28;20089;-68
2023/08/31 08:25:49;;;;;;;11.93;3.67;;;;;;;;;;5027054;28;20074;-66
2023/08/31 08:28:15;;;;;;;7.38;3.08;;;;;;;;;;5018772;28;20201;-68
2023/08/31 08:30:40;;;;;;;9.25;3.50;;;;;;;;;;5024746;28;20029;-68
2023/08/31 08:33:05;;;;;;;10.23;4.20;;;;;;;;;;5026472;28;20479;-65
2023/08/31 08:35:30;;;;;;;10.90;4.30;;;;;;;;;;5014777;28;20562;-67
2023/08/31 08:37:56;;;;;;;13.25;3.92;;;;;;;;;;5027564;28;20051;-65
2023/08/31 08:40:21;;;;;;;11.43;3.80;;;;;;;;;;5024201;28;20036;-66
2023/08/31 08:42:47;;;;;;;16.10;4.22;;;;;;;;;;5027571;28;20029;-66
2023/08/31 08:45:15;;;;;;;10.40;4.25;;;;;;;;;;5027618;28;20473;-67
2023/08/31 08:47:40;;;;;;;12.40;4.17;;;;;;;;;;5019404;28;20021;-67
2023/08/31 08:50:06;;;;;;;7.38;3.88;;;;;;;;;;5019316;28;20279;-64
2023/08/31 08:52:31;;;;;;;10.43;4.57;;;;;;;;;;5017672;28;20568;-66
2023/08/31 08:54:57;;;;;;;8.63;4.32;;;;;;;;;;5023179;28;20021;-64
2023/08/31 08:57:22;;;;;;;7.72;3.63;;;;;;;;;;5014578;28;20570;-66
2023/08/31 08:59:48;;;;;;;7.30;3.75;;;;;;;;;;5021289;28;20080;-67
2023/08/31 09:02:13;;;;;;;12.63;3.92;;;;;;;;;;5020303;28;20530;-67
2023/08/31 09:04:38;;;;;;;6.05;3.47;;;;;;;;;;5021615;28;20025;-63
2023/08/31 09:07:09;;;;;;;8.13;3.63;;;;;;;;;;5014892;28;20020;-68
2023/08/31 09:09:52;;;;;;;8.27;3.00;;;;;;;;;;5018249;28;20025;-67
2023/08/31 09:12:17;;;;;;;9.50;3.05;;;;;;;;;;5010972;28;20029;-66
2023/08/31 09:14:43;;;;;;;14.02;2.97;;;;;;;;;;5021326;28;20506;-68
2023/08/31 09:17:08;;;;;;;7.93;3.25;;;;;;;;;;5015500;28;20049;-66
2023/08/31 09:19:33;;;;;;;10.27;4.38;;;;;;;;;;5017990;28;20076;-68
2023/08/31 09:21:58;;;;;;;8.05;4.15;;;;;;;;;;5019421;28;20034;-66
2023/08/31 09:24:24;;;;;;;7.20;3.38;;;;;;;;;;5028248;28;20022;-68
2023/08/31 09:26:56;;;;;;;8.55;2.83;;;;;;;;;;5021595;28;20434;-67
2023/08/31 09:29:22;;;;;;;4.20;2.15;;;;;;;;;;5011360;28;20052;-67
2023/08/31 09:31:47;;;;;;;6.88;2.70;;;;;;;;;;5024778;28;20078;-67
2023/08/31 09:34:14;;;;;;;6.15;2.10;;;;;;;;;;5021447;28;20025;-68
2023/08/31 09:36:39;;;;;;;5.50;2.25;;;;;;;;;;5024954;28;20093;-65
2023/08/31 09:39:06;;;;;;;8.88;2.50;;;;;;;;;;5022397;28;20121;-66
2023/08/31 09:41:31;;;;;;;5.07;2.38;;;;;;;;;;5017448;28;20025;-69
2023/08/31 09:44:14;;;;;;;5.60;2.13;;;;;;;;;;5021937;28;20492;-66
2023/08/31 09:46:39;;;;;;;10.27;2.05;;;;;;;;;;5016817;28;20018;-65
2023/08/31 09:49:04;;;;;;;2.72;1.52;;;;;;;;;;5009580;28;20472;-64
2023/08/31 09:51:30;;;;;;;4.13;1.33;;;;;;;;;;5022112;28;20029;-67
2023/08/31 09:53:57;;;;;;;4.20;1.30;;;;;;;;;;5022169;28;20368;-67
2023/08/31 09:56:24;;;;;;;4.15;1.48;;;;;;;;;;5020612;28;20033;-67
2023/08/31 09:58:50;;;;;;;3.95;1.88;;;;;;;;;;5010947;28;20024;-66
2023/08/31 10:01:15;;;;;;;4.32;1.83;;;;;;;;;;5014147;28;20113;-67
2023/08/31 10:03:40;;;;;;;8.90;2.08;;;;;;;;;;5018766;28;20313;-66
2023/08/31 10:06:06;;;;;;;8.02;2.45;;;;;;;;;;5020471;28;20084;-67
2023/08/31 10:08:32;;;;;;;6.07;2.25;;;;;;;;;;5018893;28;20040;-68
2023/08/31 10:10:59;;;;;;;5.60;2.08;;;;;;;;;;5018117;28;20026;-67
2023/08/31 10:13:24;;;;;;;8.82;2.58;;;;;;;;;;5015756;28;20709;-65
2023/08/31 10:15:50;;;;;;;6.35;2.92;;;;;;;;;;5017206;28;20097;-67
2023/08/31 10:18:15;;;;;;;20.42;2.80;;;;;;;;;;5013945;28;20091;-67
2023/08/31 10:20:42;;;;;;;10.60;2.65;;;;;;;;;;5019289;28;20025;-65
2023/08/31 10:23:07;;;;;;;4.82;2.50;;;;;;;;;;5024636;28;20017;-67
2023/08/31 10:25:53;;;;;;;5.50;2.38;;;;;;;;;;5014410;28;20521;-65
2023/08/31 10:28:25;;;;;;;9.73;2.65;;;;;;;;;;5012698;28;20112;-66
2023/08/31 10:31:05;;;;;;;10.02;2.13;;;;;;;;;;5017874;28;20029;-66
2023/08/31 10:33:33;;;;;;;13.90;2.42;;;;;;;;;;5021517;28;20060;-68
2023/08/31 10:35:59;;;;;;;3.85;1.90;;;;;;;;;;5017179;28;20412;-64
2023/08/31 10:38:28;;;;;;;6.72;1.90;;;;;;;;;;5024471;28;20522;-70
2023/08/31 10:41:18;;;;;;;2.30;1.42;;;;;;;;;;5019370;28;20436;-69
2023/08/31 10:43:49;;;;;;;5.95;1.67;;;;;;;;;;5019758;28;20017;-68
2023/08/31 10:46:35;;;;;;;7.70;1.70;;;;;;;;;;5013686;28;20044;-65
2023/08/31 10:49:00;;;;;;;3.45;1.58;;;;;;;;;;5019654;28;20026;-70
2023/08/31 10:51:26;;;;;;;4.95;1.77;;;;;;;;;;5024618;28;20029;-63
2023/08/31 10:53:52;;;;;;;2.85;1.20;;;;;;;;;;5016440;28;20044;-68
2023/08/31 10:56:18;;;;;;;3.15;1.35;;;;;;;;;;5012895;28;20388;-66
2023/08/31 10:58:54;;;;;;;7.95;2.00;;;;;;;;;;5020315;28;20040;-65
2023/08/31 11:01:39;;;;;;;6.30;1.70;;;;;;;;;;5019090;28;20021;-67
2023/08/31 11:04:09;;;;;;;3.63;1.67;;;;;;;;;;5012474;28;20034;-67
2023/08/31 11:06:34;;;;;;;1.63;1.15;;;;;;;;;;5018876;28;20028;-64
2023/08/31 11:08:59;;;;;;;3.47;1.48;;;;;;;;;;5018704;28;20022;-66
2023/08/31 11:11:25;;;;;;;3.17;1.48;;;;;;;;;;5021411;28;20626;-69
2023/08/31 11:13:56;;;;;;;4.53;1.40;;;;;;;;;;5011632;28;20518;-66
2023/08/31 11:16:21;;;;;;;3.13;1.30;;;;;;;;;;5018910;28;20049;-67
2023/08/31 11:18:46;;;;;;;4.30;1.58;;;;;;;;;;5016414;28;20155;-65
2023/08/31 11:21:13;;;;;;;3.35;1.23;;;;;;;;;;5013959;28;20029;-67
2023/08/31 11:23:38;;;;;;;2.40;1.30;;;;;;;;;;5016880;28;20024;-67
2023/08/31 11:26:03;;;;;;;8.40;2.60;;;;;;;;;;5019653;28;20018;-67
2023/08/31 11:28:32;;;;;;;4.28;1.35;;;;;;;;;;5027102;28;20074;-68
2023/08/31 11:30:58;;;;;;;7.88;1.63;;;;;;;;;;5022471;28;20025;-66
2023/08/31 11:33:23;;;;;;;9.60;1.65;;;;;;;;;;5020259;28;20037;-67
2023/08/31 11:35:48;;;;;;;11.40;1.65;;;;;;;;;;5025219;28;20021;-67
2023/08/31 11:38:14;;;;;;;7.18;1.45;;;;;;;;;;5030028;28;20030;-65
2023/08/31 11:40:39;;;;;;;3.65;1.55;;;;;;;;;;5030607;28;20483;-66
2023/08/31 11:43:06;;;;;;;7.80;1.50;;;;;;;;;;5030823;28;20017;-69
2023/08/31 11:45:31;;;;;;;2.55;1.10;;;;;;;;;;5029639;28;20037;-65
2023/08/31 11:47:57;;;;;;;3.50;1.30;;;;;;;;;;5031053;28;20018;-67
2023/08/31 11:50:23;;;;;;;4.95;1.10;;;;;;;;;;5027601;28;20131;-67
2023/08/31 11:52:50;;;;;;;2.83;1.20;;;;;;;;;;5025899;28;20213;-67
2023/08/31 11:55:19;;;;;;;2.58;1.30;;;;;;;;;;5023756;28;20021;-67
2023/08/31 11:57:44;;;;;;;;;;;;;;;;;;5023861;28;20147;-67
2023/08/31 12:00:10;;;;;;;3.08;1.20;;;;;;;;;;5019978;28;19917;-68
2023/08/31 12:02:36;;;;;;;7.03;1.13;;;;;;;;;;5019256;28;20121;-67
2023/08/31 12:05:01;;;;;;;1.83;0.90;;;;;;;;;;5018312;28;20417;-64
2023/08/31 12:07:26;;;;;;;5.25;1.40;;;;;;;;;;5021093;28;20068;-64
2023/08/31 12:09:51;;;;;;;7.57;1.52;;;;;;;;;;5023146;28;20025;-68
2023/08/31 12:12:20;;;;;;;4.45;1.40;;;;;;;;;;5026615;28;20028;-67
2023/08/31 12:14:45;;;;;;;4.45;1.23;;;;;;;;;;5028951;28;20076;-66
2023/08/31 12:17:10;;;;;;;3.63;1.38;;;;;;;;;;5024454;28;20061;-65
2023/08/31 12:19:36;;;;;;;3.50;1.35;;;;;;;;;;5029117;28;20536;-68
2023/08/31 12:22:02;;;;;;;3.47;1.40;;;;;;;;;;5029968;28;20104;-67
2023/08/31 12:24:27;;;;;;;2.88;1.40;;;;;;;;;;5028488;28;20094;-66
2023/08/31 12:26:56;;;;;;;3.47;1.60;;;;;;;;;;5021564;28;20506;-70
2023/08/31 12:29:21;;;;;;;6.20;1.80;;;;;;;;;;5011222;28;20522;-68
2023/08/31 12:31:47;;;;;;;2.72;1.25;;;;;;;;;;5010411;28;20105;-68
2023/08/31 12:34:12;;;;;;;2.90;1.00;;;;;;;;;;5016499;28;20021;-68
2023/08/31 12:36:40;;;;;;;1.83;1.10;;;;;;;;;;5012341;28;20472;-66
2023/08/31 12:39:09;;;;;;;2.28;0.95;;;;;;;;;;5014935;28;20028;-69
2023/08/31 12:41:35;;;;;;;3.50;1.23;;;;;;;;;;5011577;28;20025;-68
2023/08/31 12:44:03;;;;;;;1.48;1.00;;;;;;;;;;5018365;28;20032;-67
2023/08/31 12:46:28;;;;;;;2.35;0.95;;;;;;;;;;5040778;23;20103;-67
2023/08/31 12:48:53;;;;;;;2.58;0.95;;;;;;;;;;5024000;28;20018;-66
2023/08/31 12:51:19;;;;;;;2.40;1.05;;;;;;;;;;5028710;28;20639;-66
2023/08/31 12:53:44;;;;;;;6.82;1.27;;;;;;;;;;5027574;28;20037;-70
2023/08/31 12:56:09;;;;;;;3.90;1.00;;;;;;;;;;5027678;28;20037;-68
2023/08/31 12:58:34;;;;;;;4.97;1.10;;;;;;;;;;5028166;28;20135;-70
2023/08/31 13:01:00;;;;;;;12.48;1.60;;;;;;;;;;5027344;28;20044;-67
2023/08/31 13:03:25;;;;;;;4.63;1.42;;;;;;;;;;5027980;28;20028;-67
2023/08/31 13:05:50;;;;;;;4.13;1.10;;;;;;;;;;5020123;28;20472;-66
2023/08/31 13:08:16;;;;;;;2.97;1.15;;;;;;;;;;5024049;28;20104;-68
2023/08/31 13:10:41;;;;;;;4.25;0.98;;;;;;;;;;5021424;28;20017;-67
2023/08/31 13:13:06;;;;;;;4.05;1.50;;;;;;;;;;5027966;28;20100;-64
2023/08/31 13:15:32;;;;;;;5.53;1.30;;;;;;;;;;5024578;28;20055;-67
2023/08/31 13:17:58;;;;;;;2.38;0.93;;;;;;;;;;5020819;28;20026;-66
2023/08/31 13:20:23;;;;;;;5.88;1.20;;;;;;;;;;5020223;28;20108;-66
2023/08/31 13:22:48;;;;;;;3.55;1.23;;;;;;;;;;5030419;28;20093;-66
2023/08/31 13:25:13;;;;;;;2.40;0.90;;;;;;;;;;5028165;28;20103;-67
2023/08/31 13:27:38;;;;;;;2.22;1.20;;;;;;;;;;5021022;28;20121;-66
2023/08/31 13:30:05;;;;;;;2.42;1.00;;;;;;;;;;5044596;28;20407;-67
2023/08/31 13:32:31;;;;;;;2.33;1.00;;;;;;;;;;5029550;28;20026;-66
2023/08/31 13:34:56;;;;;;;2.85;1.00;;;;;;;;;;5019133;28;20075;-68
2023/08/31 13:37:21;;;;;;;3.55;1.00;;;;;;;;;;5026716;28;20075;-67
2023/08/31 13:39:49;;;;;;;2.53;1.10;;;;;;;;;;5028541;28;20021;-69
2023/08/31 13:42:15;;;;;;;2.65;1.00;;;;;;;;;;5027852;28;20027;-67
2023/08/31 13:44:40;;;;;;;6.60;1.38;;;;;;;;;;5025694;28;20025;-67
2023/08/31 13:47:06;;;;;;;2.28;1.00;;;;;;;;;;5027820;28;20029;-65
2023/08/31 13:49:31;;;;;;;6.50;1.13;;;;;;;;;;5028165;28;20037;-66
2023/08/31 13:51:56;;;;;;;3.97;1.33;;;;;;;;;;5027823;28;20025;-67
2023/08/31 13:54:21;;;;;;;3.57;1.17;;;;;;;;;;5025873;28;20328;-66
2023/08/31 13:56:47;;;;;;;3.60;1.10;;;;;;;;;;5026947;28;20279;-71
2023/08/31 13:59:12;;;;;;;2.42;1.20;;;;;;;;;;5028421;28;20288;-68
2023/08/31 14:01:37;;;;;;;6.45;1.27;;;;;;;;;;5028837;28;20025;-68
2023/08/31 14:04:03;;;;;;;2.38;1.02;;;;;;;;;;5022585;28;20033;-67
2023/08/31 14:06:29;;;;;;;9.00;1.20;;;;;;;;;;5025760;28;20025;-65
2023/08/31 14:08:54;;;;;;;3.92;1.30;;;;;;;;;;5024199;28;20018;-68
2023/08/31 14:11:20;;;;;;;3.10;1.02;;;;;;;;;;5017557;28;20022;-70
2023/08/31 14:13:46;;;;;;;3.60;1.40;;;;;;;;;;5027575;28;20102;-67
2023/08/31 14:16:11;;;;;;;5.05;1.23;;;;;;;;;;5028442;28;20029;-65
2023/08/31 14:18:36;;;;;;;2.80;0.90;;;;;;;;;;5021641;28;20550;-66
2023/08/31 14:21:03;;;;;;;3.95;1.20;;;;;;;;;;5016630;28;20029;-69
2023/08/31 14:23:29;;;;;;;3.80;1.00;;;;;;;;;;5027337;28;20581;-68
2023/08/31 14:25:54;;;;;;;4.43;1.27;;;;;;;;;;5022829;28;20033;-67
2023/08/31 14:28:19;;;;;;;4.55;1.50;;;;;;;;;;5028237;28;20022;-70
2023/08/31 14:30:44;;;;;;;2.72;1.00;;;;;;;;;;5020870;28;20025;-69
2023/08/31 14:33:09;;;;;;;6.75;1.60;;;;;;;;;;5026100;28;20033;-71
2023/08/31 14:35:38;;;;;;;3.10;1.05;;;;;;;;;;5026323;28;20399;-68
2023/08/31 14:38:03;;;;;;;;;;;;;;;;;;5024581;28;20013;-66